Time;durP1;ratioP1;P1;durP2;ratioP2;P2;SDS_P1;SDS_P2;PMS_P1;PMS_P2;Temp;Humidity;BMP_temperature;BMP_pressure;BME280_temperature;BME280_humidity;BME280_pressure;Samples;Min_cycle;Max_cycle;Signal;HPM_P1;HPM_P2
2021/01/31 00:02:02;;;;;;;;;0.00;0.00;;;;;;;;5095391;28;13458;-68
2021/01/31 00:04:28;;;;;;;;;1.75;0.00;;;;;;;;5093301;28;13457;-68
2021/01/31 00:06:55;;;;;;;;;2.80;0.80;;;;;;;;5093919;28;13475;-67
2021/01/31 00:09:21;;;;;;;;;0.75;0.75;;;;;;;;5093889;28;13564;-67
2021/01/31 00:11:48;;;;;;;;;1.00;1.00;;;;;;;;5092742;28;13446;-66
2021/01/31 00:14:13;;;;;;;;;0.80;0.80;;;;;;;;5095011;28;13582;-67
2021/01/31 00:16:39;;;;;;;;;1.00;1.00;;;;;;;;5092288;28;13440;-67
2021/01/31 00:19:05;;;;;;;;;0.00;0.00;;;;;;;;5095009;28;14222;-66
2021/01/31 00:21:31;;;;;;;;;1.00;0.40;;;;;;;;5092510;28;13490;-67
2021/01/31 00:23:57;;;;;;;;;0.00;0.00;;;;;;;;5094247;28;13460;-67
2021/01/31 00:26:23;;;;;;;;;2.75;0.00;;;;;;;;5093674;28;15354;-67
2021/01/31 00:28:50;;;;;;;;;0.33;0.00;;;;;;;;5092919;28;13508;-67
2021/01/31 00:31:16;;;;;;;;;0.00;0.00;;;;;;;;5084608;28;14470;-66
2021/01/31 00:33:41;;;;;;;;;3.00;0.00;;;;;;;;5078317;28;13457;-66
2021/01/31 00:36:08;;;;;;;;;0.00;0.00;;;;;;;;5074105;28;13572;-67
2021/01/31 00:38:34;;;;;;;;;0.00;0.00;;;;;;;;5080886;28;13429;-68
2021/01/31 00:41:00;;;;;;;;;0.50;0.00;;;;;;;;5079156;28;13656;-67
2021/01/31 00:43:26;;;;;;;;;0.60;0.00;;;;;;;;5079857;28;14274;-68
2021/01/31 00:45:53;;;;;;;;;1.00;1.00;;;;;;;;5080013;28;14039;-67
2021/01/31 00:48:19;;;;;;;;;0.00;0.00;;;;;;;;5078840;28;13438;-67
2021/01/31 00:50:45;;;;;;;;;0.00;0.00;;;;;;;;5081155;28;13436;-67
2021/01/31 00:53:11;;;;;;;;;0.25;0.25;;;;;;;;5077806;28;13478;-67
2021/01/31 00:55:37;;;;;;;;;0.80;0.80;;;;;;;;5081533;28;13470;-67
2021/01/31 00:58:04;;;;;;;;;0.00;0.00;;;;;;;;5078525;28;13463;-67
2021/01/31 01:00:31;;;;;;;;;0.00;0.00;;;;;;;;5079936;28;13533;-67
2021/01/31 01:02:58;;;;;;;;;1.00;1.00;;;;;;;;5079125;28;13583;-67
2021/01/31 01:05:25;;;;;;;;;2.00;0.25;;;;;;;;5079150;28;13604;-69
2021/01/31 01:07:50;;;;;;;;;1.00;1.00;;;;;;;;5079854;28;13425;-68
2021/01/31 01:10:19;;;;;;;;;2.00;1.40;;;;;;;;5077947;28;13553;-67
2021/01/31 01:12:45;;;;;;;;;0.00;0.00;;;;;;;;5080649;28;13609;-68
2021/01/31 01:15:12;;;;;;;;;1.00;1.00;;;;;;;;5077409;28;13625;-68
2021/01/31 01:17:38;;;;;;;;;1.00;0.20;;;;;;;;5073276;28;13595;-68
2021/01/31 01:20:06;;;;;;;;;0.00;0.00;;;;;;;;5080135;28;13567;-67
2021/01/31 01:22:33;;;;;;;;;0.00;0.00;;;;;;;;5078136;28;13550;-67
2021/01/31 01:25:02;;;;;;;;;0.60;0.00;;;;;;;;5079947;28;13445;-68
2021/01/31 01:27:28;;;;;;;;;0.00;0.00;;;;;;;;5078156;28;13479;-67
2021/01/31 01:29:54;;;;;;;;;1.00;1.00;;;;;;;;5078898;28;13644;-68
2021/01/31 01:32:20;;;;;;;;;0.00;0.00;;;;;;;;5079390;28;13718;-66
2021/01/31 01:34:46;;;;;;;;;3.50;1.00;;;;;;;;5077779;28;14185;-68
2021/01/31 01:37:16;;;;;;;;;1.00;0.00;;;;;;;;5080585;28;13427;-67
2021/01/31 01:39:42;;;;;;;;;0.00;0.00;;;;;;;;5076791;28;13570;-67
2021/01/31 01:42:09;;;;;;;;;0.00;0.00;;;;;;;;5079742;28;13460;-68
2021/01/31 01:44:35;;;;;;;;;0.75;0.75;;;;;;;;5077302;28;13546;-67
2021/01/31 01:47:03;;;;;;;;;0.00;0.00;;;;;;;;5079722;28;14311;-66
2021/01/31 01:49:33;;;;;;;;;1.00;0.00;;;;;;;;5077925;28;13456;-69
2021/01/31 01:52:02;;;;;;;;;0.00;0.00;;;;;;;;5079637;28;13631;-67
2021/01/31 01:54:32;;;;;;;;;0.00;0.00;;;;;;;;5077923;28;13570;-68
2021/01/31 01:57:00;;;;;;;;;1.60;0.00;;;;;;;;5079092;28;13648;-67
2021/01/31 01:59:27;;;;;;;;;0.00;0.00;;;;;;;;5077920;28;13527;-66
2021/01/31 02:02:10;;;;;;;;;1.00;0.00;;;;;;;;5078344;28;13598;-67
2021/01/31 02:04:36;;;;;;;;;1.00;0.00;;;;;;;;5076772;28;13548;-67
2021/01/31 02:07:03;;;;;;;;;0.00;0.00;;;;;;;;5079586;28;13568;-66
2021/01/31 02:09:30;;;;;;;;;0.00;0.00;;;;;;;;5077497;28;14345;-67
2021/01/31 02:11:58;;;;;;;;;0.00;0.00;;;;;;;;5078604;28;13572;-67
2021/01/31 02:14:26;;;;;;;;;0.50;0.50;;;;;;;;5077994;28;13564;-66
2021/01/31 02:16:54;;;;;;;;;1.00;1.00;;;;;;;;5077804;28;14299;-67
2021/01/31 02:19:31;;;;;;;;;0.00;0.00;;;;;;;;5078097;28;13594;-66
2021/01/31 02:22:16;;;;;;;;;0.00;0.00;;;;;;;;5078579;28;13834;-67
2021/01/31 02:24:59;;;;;;;;;0.00;0.00;;;;;;;;5072994;28;14278;-67
2021/01/31 02:27:40;;;;;;;;;0.00;0.00;;;;;;;;5068012;28;13540;-67
2021/01/31 02:30:25;;;;;;;;;0.00;0.00;;;;;;;;5079722;28;13534;-67
2021/01/31 02:33:19;;;;;;;;;0.00;0.00;;;;;;;;5075351;28;13581;-67
2021/01/31 02:35:46;;;;;;;;;0.00;0.00;;;;;;;;5073783;28;14266;-67
2021/01/31 02:38:16;;;;;;;;;0.00;0.00;;;;;;;;5079156;28;13545;-67
2021/01/31 02:40:50;;;;;;;;;0.00;0.00;;;;;;;;5076411;28;13405;-66
2021/01/31 02:43:19;;;;;;;;;1.00;0.00;;;;;;;;5078522;28;13522;-66
2021/01/31 02:45:47;;;;;;;;;0.00;0.00;;;;;;;;5076369;28;13588;-66
2021/01/31 02:48:17;;;;;;;;;0.25;0.00;;;;;;;;5079240;28;13405;-66
2021/01/31 02:50:46;;;;;;;;;0.00;0.00;;;;;;;;5079008;28;13441;-67
2021/01/31 02:53:15;;;;;;;;;0.00;0.00;;;;;;;;5075179;28;13566;-67
2021/01/31 02:55:43;;;;;;;;;0.40;0.00;;;;;;;;5079322;28;13547;-67
2021/01/31 02:58:10;;;;;;;;;0.00;0.00;;;;;;;;5071858;28;14868;-66
2021/01/31 03:00:39;;;;;;;;;0.00;0.00;;;;;;;;5071519;28;13557;-66
2021/01/31 03:03:07;;;;;;;;;1.80;0.00;;;;;;;;5078938;28;13568;-66
2021/01/31 03:05:36;;;;;;;;;0.00;0.00;;;;;;;;5075636;28;13578;-67
2021/01/31 03:08:04;;;;;;;;;0.00;0.00;;;;;;;;5078773;28;13523;-68
2021/01/31 03:10:32;;;;;;;;;1.00;0.00;;;;;;;;5076244;28;13454;-67
2021/01/31 03:13:00;;;;;;;;;0.00;0.00;;;;;;;;5077886;28;13556;-66
2021/01/31 03:15:29;;;;;;;;;0.00;0.00;;;;;;;;5076417;28;13433;-66
2021/01/31 03:17:57;;;;;;;;;2.00;0.00;;;;;;;;5077526;28;13441;-68
2021/01/31 03:20:26;;;;;;;;;0.00;0.00;;;;;;;;5076725;28;13603;-66
2021/01/31 03:22:56;;;;;;;;;0.00;0.00;;;;;;;;5076954;28;13555;-66
2021/01/31 03:25:24;;;;;;;;;0.00;0.00;;;;;;;;5076959;28;13591;-67
2021/01/31 03:27:50;;;;;;;;;0.00;0.00;;;;;;;;5076537;28;14353;-67
2021/01/31 03:30:16;;;;;;;;;1.75;0.00;;;;;;;;5077808;28;13431;-67
2021/01/31 03:32:46;;;;;;;;;0.75;0.00;;;;;;;;5075685;28;13552;-67
2021/01/31 03:35:15;;;;;;;;;0.00;0.00;;;;;;;;5078394;28;13577;-67
2021/01/31 03:37:44;;;;;;;;;0.00;0.00;;;;;;;;5075408;28;13429;-67
2021/01/31 03:40:13;;;;;;;;;0.00;0.00;;;;;;;;5078600;28;13542;-67
2021/01/31 03:42:39;;;;;;;;;0.00;0.00;;;;;;;;5071555;28;13561;-67
2021/01/31 03:45:08;;;;;;;;;0.20;0.00;;;;;;;;5078748;28;13541;-67
2021/01/31 03:47:39;;;;;;;;;0.00;0.00;;;;;;;;5075178;28;14170;-67
2021/01/31 03:50:06;;;;;;;;;0.40;0.40;;;;;;;;5071168;28;13572;-67
2021/01/31 03:52:32;;;;;;;;;0.75;0.00;;;;;;;;5078162;28;13431;-67
2021/01/31 03:54:58;;;;;;;;;1.20;0.00;;;;;;;;5076034;28;13571;-68
2021/01/31 03:57:29;;;;;;;;;0.00;0.00;;;;;;;;5076708;28;13614;-68
2021/01/31 03:59:59;;;;;;;;;1.00;1.00;;;;;;;;5076439;28;13563;-68
2021/01/31 04:02:27;;;;;;;;;0.00;0.00;;;;;;;;5076818;28;13580;-67
2021/01/31 04:04:53;;;;;;;;;0.00;0.00;;;;;;;;5076672;28;13538;-68
2021/01/31 04:07:21;;;;;;;;;0.00;0.00;;;;;;;;5079660;28;13579;-68
2021/01/31 04:09:47;;;;;;;;;0.00;0.00;;;;;;;;5081355;28;13607;-67
2021/01/31 04:12:15;;;;;;;;;2.00;0.00;;;;;;;;5078453;28;13440;-67
2021/01/31 04:14:46;;;;;;;;;1.60;1.00;;;;;;;;5078873;28;13569;-67
2021/01/31 04:17:12;;;;;;;;;0.75;0.00;;;;;;;;5081572;28;13533;-67
2021/01/31 04:19:38;;;;;;;;;1.00;1.00;;;;;;;;5078447;28;13576;-68
2021/01/31 04:22:04;;;;;;;;;1.00;0.00;;;;;;;;5081733;28;13563;-68
2021/01/31 04:24:30;;;;;;;;;0.00;0.00;;;;;;;;5078852;28;13566;-67
2021/01/31 04:26:56;;;;;;;;;0.00;0.00;;;;;;;;5080480;28;13465;-67
2021/01/31 04:29:22;;;;;;;;;1.20;1.20;;;;;;;;5079864;28;13465;-68
2021/01/31 04:31:48;;;;;;;;;0.00;0.00;;;;;;;;5079519;28;13458;-68
2021/01/31 04:34:14;;;;;;;;;0.00;0.00;;;;;;;;5080763;28;13567;-68
2021/01/31 04:36:40;;;;;;;;;1.00;1.00;;;;;;;;5078278;28;13438;-68
2021/01/31 04:39:06;;;;;;;;;1.00;1.00;;;;;;;;5081692;28;13541;-68
2021/01/31 04:41:33;;;;;;;;;1.67;0.67;;;;;;;;5078350;28;13450;-67
2021/01/31 04:44:00;;;;;;;;;0.00;0.00;;;;;;;;5080837;28;14232;-67
2021/01/31 04:46:37;;;;;;;;;0.25;0.25;;;;;;;;5079150;28;13538;-67
2021/01/31 04:49:07;;;;;;;;;0.00;0.00;;;;;;;;5081111;28;13559;-67
2021/01/31 04:51:37;;;;;;;;;0.00;0.00;;;;;;;;5077982;28;13576;-67
2021/01/31 04:54:14;;;;;;;;;1.00;1.00;;;;;;;;5081363;28;13416;-67
2021/01/31 04:56:49;;;;;;;;;1.00;1.00;;;;;;;;5074347;28;13564;-67
2021/01/31 04:59:21;;;;;;;;;0.00;0.00;;;;;;;;5080235;28;13538;-67
2021/01/31 05:01:50;;;;;;;;;0.00;0.00;;;;;;;;5077698;28;13546;-67
2021/01/31 05:04:17;;;;;;;;;0.00;0.00;;;;;;;;5078284;28;13561;-66
2021/01/31 05:06:46;;;;;;;;;0.80;0.80;;;;;;;;5080557;28;13437;-67
2021/01/31 05:09:15;;;;;;;;;3.00;0.00;;;;;;;;5077810;28;14286;-67
2021/01/31 05:11:47;;;;;;;;;2.75;1.00;;;;;;;;5080596;28;13553;-66
2021/01/31 05:14:15;;;;;;;;;0.00;0.00;;;;;;;;5077857;28;14323;-67
2021/01/31 05:16:41;;;;;;;;;2.00;1.00;;;;;;;;5080428;28;13551;-67
2021/01/31 05:19:12;;;;;;;;;1.75;0.75;;;;;;;;5076747;28;13571;-66
2021/01/31 05:21:39;;;;;;;;;2.00;2.00;;;;;;;;5073580;28;13341;-67
2021/01/31 05:24:06;;;;;;;;;1.25;1.25;;;;;;;;5073014;28;13633;-67
2021/01/31 05:26:36;;;;;;;;;1.75;1.00;;;;;;;;5080221;28;14318;-66
2021/01/31 05:29:03;;;;;;;;;3.67;2.00;;;;;;;;5077781;28;13627;-67
2021/01/31 05:31:31;;;;;;;;;1.00;0.00;;;;;;;;5079674;28;14007;-67
2021/01/31 05:33:58;;;;;;;;;0.75;0.75;;;;;;;;5078318;28;13561;-66
2021/01/31 05:36:25;;;;;;;;;0.00;0.00;;;;;;;;5078860;28;13600;-67
2021/01/31 05:38:51;;;;;;;;;0.00;0.00;;;;;;;;5078694;28;13535;-67
2021/01/31 05:41:44;;;;;;;;;1.00;1.00;;;;;;;;5077729;28;13699;-67
2021/01/31 05:44:20;;;;;;;;;0.40;0.40;;;;;;;;5047802;28;14250;-66
2021/01/31 05:46:47;;;;;;;;;1.60;0.80;;;;;;;;5079382;28;13521;-67
2021/01/31 05:49:29;;;;;;;;;0.00;0.00;;;;;;;;5077104;28;13459;-67
2021/01/31 05:51:55;;;;;;;;;1.00;1.00;;;;;;;;5078017;28;13590;-67
2021/01/31 05:54:26;;;;;;;;;1.00;1.00;;;;;;;;5077973;28;13598;-67
2021/01/31 05:56:53;;;;;;;;;1.00;1.00;;;;;;;;5078228;28;13545;-66
2021/01/31 05:59:19;;;;;;;;;0.00;0.00;;;;;;;;5077584;28;13442;-66
2021/01/31 06:01:52;;;;;;;;;1.00;0.00;;;;;;;;5079006;28;13547;-66
2021/01/31 06:04:18;;;;;;;;;1.00;0.00;;;;;;;;5077567;28;13229;-66
2021/01/31 06:06:44;;;;;;;;;1.75;0.00;;;;;;;;5079085;28;13542;-66
2021/01/31 06:09:13;;;;;;;;;0.00;0.00;;;;;;;;5076098;28;13452;-66
2021/01/31 06:11:41;;;;;;;;;2.50;0.00;;;;;;;;5080056;28;14373;-67
2021/01/31 06:14:11;;;;;;;;;2.00;2.00;;;;;;;;5075822;28;13466;-67
2021/01/31 06:16:37;;;;;;;;;1.25;0.75;;;;;;;;5072392;28;14327;-68
2021/01/31 06:19:06;;;;;;;;;1.00;1.00;;;;;;;;5079356;28;15228;-66
2021/01/31 06:21:37;;;;;;;;;0.60;0.60;;;;;;;;5076264;28;13578;-66
2021/01/31 06:24:04;;;;;;;;;2.00;1.00;;;;;;;;5079817;28;14276;-67
2021/01/31 06:26:31;;;;;;;;;0.00;0.00;;;;;;;;5076710;28;13562;-67
2021/01/31 06:29:01;;;;;;;;;1.50;0.00;;;;;;;;5078059;28;13515;-66
2021/01/31 06:31:32;;;;;;;;;1.00;0.00;;;;;;;;5076636;28;13598;-66
2021/01/31 06:33:58;;;;;;;;;1.00;1.00;;;;;;;;5078426;28;13503;-67
2021/01/31 06:36:28;;;;;;;;;2.00;0.00;;;;;;;;5076966;28;13598;-66
2021/01/31 06:39:05;;;;;;;;;1.00;1.00;;;;;;;;5080089;28;13543;-66
2021/01/31 06:41:42;;;;;;;;;0.00;0.00;;;;;;;;5079215;28;13552;-66
2021/01/31 06:44:13;;;;;;;;;0.00;0.00;;;;;;;;5072070;28;13577;-67
2021/01/31 06:46:43;;;;;;;;;0.40;0.00;;;;;;;;5078976;28;13562;-68
2021/01/31 06:49:14;;;;;;;;;1.50;1.00;;;;;;;;5075914;28;13694;-66
2021/01/31 06:51:50;;;;;;;;;2.00;0.00;;;;;;;;5078870;28;13467;-67
2021/01/31 06:54:28;;;;;;;;;1.00;0.80;;;;;;;;5076676;28;13590;-67
2021/01/31 06:57:05;;;;;;;;;0.40;0.40;;;;;;;;5076726;28;14300;-67
2021/01/31 06:59:37;;;;;;;;;1.60;0.60;;;;;;;;5078837;28;13523;-67
2021/01/31 07:02:15;;;;;;;;;1.00;0.40;;;;;;;;5071303;28;14338;-67
2021/01/31 07:05:01;;;;;;;;;2.80;2.40;;;;;;;;5072534;28;13572;-68
2021/01/31 07:07:51;;;;;;;;;1.60;0.40;;;;;;;;5058169;28;13556;-67
2021/01/31 07:10:35;;;;;;;;;1.75;1.75;;;;;;;;5074268;28;14192;-67
2021/01/31 07:13:09;;;;;;;;;1.40;1.40;;;;;;;;5075589;28;13588;-66
2021/01/31 07:15:40;;;;;;;;;1.00;1.00;;;;;;;;5071377;28;13708;-67
2021/01/31 07:18:10;;;;;;;;;2.00;2.00;;;;;;;;5071292;28;13585;-67
2021/01/31 07:20:39;;;;;;;;;3.00;1.00;;;;;;;;5071550;28;13488;-67
2021/01/31 07:23:10;;;;;;;;;1.60;0.80;;;;;;;;5071204;28;13496;-67
2021/01/31 07:25:37;;;;;;;;;2.00;1.00;;;;;;;;5071381;28;14235;-66
2021/01/31 07:28:07;;;;;;;;;0.00;0.00;;;;;;;;5069499;28;14302;-66
2021/01/31 07:30:35;;;;;;;;;0.00;0.00;;;;;;;;5075651;28;13551;-66
2021/01/31 07:33:16;;;;;;;;;3.00;1.00;;;;;;;;5078482;28;13560;-67
2021/01/31 07:35:55;;;;;;;;;1.00;1.00;;;;;;;;5065953;28;13607;-67
2021/01/31 07:38:24;;;;;;;;;0.80;0.80;;;;;;;;5073121;28;13462;-67
2021/01/31 07:40:52;;;;;;;;;1.00;1.00;;;;;;;;5077760;28;13550;-67
2021/01/31 07:43:19;;;;;;;;;0.00;0.00;;;;;;;;5080451;28;13569;-67
2021/01/31 07:45:45;;;;;;;;;0.25;0.25;;;;;;;;5081748;28;13576;-66
2021/01/31 07:48:33;;;;;;;;;0.00;0.00;;;;;;;;5079424;28;13480;-67
2021/01/31 07:51:01;;;;;;;;;1.00;1.00;;;;;;;;5079659;28;13582;-67
2021/01/31 07:53:28;;;;;;;;;1.00;0.00;;;;;;;;5081467;28;13557;-66
2021/01/31 07:55:54;;;;;;;;;0.80;0.00;;;;;;;;5080587;28;13584;-71
2021/01/31 07:58:32;;;;;;;;;1.00;1.00;;;;;;;;5079977;28;14344;-72
2021/01/31 08:00:58;;;;;;;;;0.00;0.00;;;;;;;;5079830;28;14208;-73
2021/01/31 08:03:28;;;;;;;;;0.00;0.00;;;;;;;;5080654;28;13480;-73
2021/01/31 08:05:57;;;;;;;;;0.00;0.00;;;;;;;;5075414;28;13656;-72
2021/01/31 08:08:42;;;;;;;;;0.60;0.60;;;;;;;;5080351;28;13479;-70
2021/01/31 08:11:09;;;;;;;;;0.00;0.00;;;;;;;;5063167;28;13479;-71
2021/01/31 08:13:40;;;;;;;;;0.50;0.50;;;;;;;;5073784;28;13612;-71
2021/01/31 08:16:25;;;;;;;;;2.40;0.40;;;;;;;;5072672;28;13454;-75
2021/01/31 08:19:01;;;;;;;;;0.00;0.00;;;;;;;;5075009;28;13420;-71
2021/01/31 08:21:45;;;;;;;;;1.00;0.20;;;;;;;;5078813;28;13591;-71
2021/01/31 08:24:12;;;;;;;;;2.00;0.00;;;;;;;;5079357;28;13409;-72
2021/01/31 08:26:40;;;;;;;;;0.00;0.00;;;;;;;;5079179;28;14287;-70
2021/01/31 08:29:16;;;;;;;;;0.00;0.00;;;;;;;;5078649;28;13570;-71
2021/01/31 08:31:57;;;;;;;;;0.75;0.75;;;;;;;;5078624;28;13536;-71
2021/01/31 08:34:23;;;;;;;;;1.00;1.00;;;;;;;;5074864;28;14129;-71
2021/01/31 08:36:49;;;;;;;;;2.00;1.00;;;;;;;;5082806;28;13677;-72
2021/01/31 08:39:27;;;;;;;;;0.00;0.00;;;;;;;;5073821;28;13480;-70
2021/01/31 08:42:02;;;;;;;;;1.00;1.00;;;;;;;;5070484;28;13488;-70
2021/01/31 08:44:43;;;;;;;;;0.80;0.80;;;;;;;;5068325;28;13458;-72
2021/01/31 08:47:11;;;;;;;;;1.00;1.00;;;;;;;;5066721;28;13570;-69
2021/01/31 08:49:37;;;;;;;;;2.00;2.00;;;;;;;;5063589;28;14124;-71
2021/01/31 08:52:05;;;;;;;;;3.80;2.00;;;;;;;;5076127;28;13498;-66
2021/01/31 08:54:32;;;;;;;;;8.20;8.20;;;;;;;;5080131;28;13481;-67
2021/01/31 08:56:58;;;;;;;;;2.00;2.00;;;;;;;;5078381;28;13463;-73
2021/01/31 08:59:26;;;;;;;;;1.00;1.00;;;;;;;;5078959;28;13495;-69
2021/01/31 09:01:55;;;;;;;;;4.25;4.25;;;;;;;;5079180;28;13540;-69
2021/01/31 09:04:21;;;;;;;;;4.00;3.00;;;;;;;;5078284;28;13642;-70
2021/01/31 09:06:49;;;;;;;;;3.00;3.00;;;;;;;;5080057;28;13578;-71
2021/01/31 09:09:19;;;;;;;;;6.00;4.25;;;;;;;;5077649;28;14250;-70
2021/01/31 09:11:49;;;;;;;;;12.00;10.00;;;;;;;;5079965;28;13513;-73
2021/01/31 09:14:18;;;;;;;;;4.00;4.00;;;;;;;;5077335;28;13593;-67
2021/01/31 09:16:44;;;;;;;;;2.60;1.00;;;;;;;;5079623;28;13565;-65
2021/01/31 09:19:15;;;;;;;;;2.80;1.80;;;;;;;;5075577;28;13681;-78
2021/01/31 09:21:42;;;;;;;;;1.00;1.00;;;;;;;;5074265;28;13662;-64
2021/01/31 09:24:11;;;;;;;;;6.00;6.00;;;;;;;;5077858;28;14347;-68
2021/01/31 09:26:37;;;;;;;;;3.00;3.00;;;;;;;;5078725;28;13509;-70
2021/01/31 09:29:07;;;;;;;;;4.00;2.00;;;;;;;;5085110;22;13612;-67
2021/01/31 09:31:33;;;;;;;;;5.25;5.25;;;;;;;;5054714;28;13510;-64
2021/01/31 09:34:00;;;;;;;;;4.20;3.60;;;;;;;;5057873;28;13612;-66
2021/01/31 09:36:27;;;;;;;;;1.00;1.00;;;;;;;;5056421;28;13641;-71
2021/01/31 09:38:54;;;;;;;;;1.00;1.00;;;;;;;;5057623;28;13485;-70
2021/01/31 09:41:21;;;;;;;;;1.00;1.00;;;;;;;;5056548;28;14185;-68
2021/01/31 09:43:50;;;;;;;;;1.00;1.00;;;;;;;;5056202;28;15073;-66
2021/01/31 09:46:19;;;;;;;;;2.50;2.00;;;;;;;;5057323;28;13575;-69
2021/01/31 09:48:45;;;;;;;;;2.00;2.00;;;;;;;;5055896;28;13501;-69
2021/01/31 09:51:17;;;;;;;;;2.00;2.00;;;;;;;;5057873;28;13580;-70
2021/01/31 09:53:45;;;;;;;;;1.60;1.60;;;;;;;;5055358;28;13599;-70
2021/01/31 09:56:12;;;;;;;;;1.25;1.25;;;;;;;;5057642;28;13465;-72
2021/01/31 09:58:45;;;;;;;;;2.00;1.00;;;;;;;;5055424;28;13647;-68
2021/01/31 10:01:13;;;;;;;;;1.00;1.00;;;;;;;;5053802;28;14143;-72
2021/01/31 10:03:40;;;;;;;;;1.00;1.00;;;;;;;;5053528;28;13534;-64
2021/01/31 10:06:11;;;;;;;;;3.00;1.00;;;;;;;;5055544;28;13502;-66
2021/01/31 10:08:38;;;;;;;;;1.00;1.00;;;;;;;;5044025;28;13535;-71
2021/01/31 10:11:23;;;;;;;;;1.00;1.00;;;;;;;;5056471;28;13566;-73
2021/01/31 10:13:49;;;;;;;;;1.00;1.00;;;;;;;;5055094;28;13520;-71
2021/01/31 10:16:17;;;;;;;;;0.80;0.80;;;;;;;;5055442;28;13533;-69
2021/01/31 10:18:44;;;;;;;;;1.00;1.00;;;;;;;;5054387;28;13580;-69
2021/01/31 10:21:21;;;;;;;;;0.00;0.00;;;;;;;;5054919;28;14292;-66
2021/01/31 10:23:48;;;;;;;;;1.00;1.00;;;;;;;;5052376;28;13844;-68
2021/01/31 10:26:18;;;;;;;;;0.00;0.00;;;;;;;;5056572;28;14278;-68
2021/01/31 10:28:47;;;;;;;;;7.00;7.00;;;;;;;;5054894;28;14227;-76
2021/01/31 10:31:26;;;;;;;;;4.00;4.00;;;;;;;;5053001;28;13656;-72
2021/01/31 10:33:56;;;;;;;;;3.25;3.00;;;;;;;;5043915;28;13636;-72
2021/01/31 10:36:24;;;;;;;;;6.00;5.00;;;;;;;;4973622;28;13650;-71
2021/01/31 10:38:51;;;;;;;;;2.60;2.60;;;;;;;;5011963;28;13659;-71
2021/01/31 10:41:17;;;;;;;;;1.00;1.00;;;;;;;;5010936;28;13668;-69
2021/01/31 10:43:43;;;;;;;;;0.00;0.00;;;;;;;;5012995;28;13510;-68
2021/01/31 10:46:09;;;;;;;;;1.00;1.00;;;;;;;;5012754;28;13527;-68
2021/01/31 10:48:35;;;;;;;;;0.00;0.00;;;;;;;;5013512;28;13538;-69
2021/01/31 10:51:02;;;;;;;;;1.00;1.00;;;;;;;;5016630;28;14170;-69
2021/01/31 10:53:28;;;;;;;;;1.00;1.00;;;;;;;;5013918;28;13727;-69
2021/01/31 10:55:54;;;;;;;;;0.50;0.50;;;;;;;;5015754;28;13520;-69
2021/01/31 10:58:20;;;;;;;;;2.00;2.00;;;;;;;;5015162;28;13518;-69
2021/01/31 11:00:46;;;;;;;;;1.75;1.25;;;;;;;;5015179;28;13511;-72
2021/01/31 11:03:12;;;;;;;;;1.00;1.00;;;;;;;;5016551;28;13513;-72
2021/01/31 11:05:37;;;;;;;;;1.00;1.00;;;;;;;;5014940;28;13699;-72
2021/01/31 11:08:05;;;;;;;;;4.00;3.00;;;;;;;;5016601;28;14338;-72
2021/01/31 11:10:30;;;;;;;;;1.00;1.00;;;;;;;;5010975;28;13654;-71
2021/01/31 11:12:56;;;;;;;;;1.80;1.00;;;;;;;;5014961;28;13513;-71
2021/01/31 11:15:23;;;;;;;;;1.00;1.00;;;;;;;;5015481;28;13542;-72
2021/01/31 11:17:48;;;;;;;;;0.80;0.00;;;;;;;;5016713;28;13521;-72
2021/01/31 11:20:14;;;;;;;;;0.00;0.00;;;;;;;;5014250;28;13649;-72
2021/01/31 11:22:40;;;;;;;;;0.00;0.00;;;;;;;;5017898;28;13624;-71
2021/01/31 11:25:08;;;;;;;;;0.00;0.00;;;;;;;;5013775;28;13630;-72
2021/01/31 11:27:33;;;;;;;;;1.00;1.00;;;;;;;;5017804;28;13518;-73
2021/01/31 11:29:59;;;;;;;;;1.00;1.00;;;;;;;;5010987;28;13582;-68
2021/01/31 11:32:25;;;;;;;;;1.00;1.00;;;;;;;;5015630;28;13558;-67
2021/01/31 11:34:51;;;;;;;;;1.00;1.00;;;;;;;;5015606;28;13543;-67
2021/01/31 11:37:17;;;;;;;;;0.50;0.50;;;;;;;;5013057;28;13571;-67
2021/01/31 11:39:43;;;;;;;;;0.75;0.75;;;;;;;;5014003;28;14201;-67
2021/01/31 11:42:10;;;;;;;;;0.00;0.00;;;;;;;;5016607;28;13488;-68
2021/01/31 11:44:36;;;;;;;;;0.00;0.00;;;;;;;;5014028;28;13652;-68
2021/01/31 11:47:02;;;;;;;;;1.00;1.00;;;;;;;;5016718;28;13573;-68
2021/01/31 11:49:28;;;;;;;;;1.40;1.40;;;;;;;;5016651;28;14324;-69
2021/01/31 11:51:54;;;;;;;;;5.00;5.00;;;;;;;;5013862;28;13523;-69
2021/01/31 11:54:20;;;;;;;;;3.75;2.75;;;;;;;;5011758;28;13713;-69
2021/01/31 11:56:46;;;;;;;;;2.00;2.00;;;;;;;;5014652;28;13501;-68
2021/01/31 11:59:12;;;;;;;;;2.25;2.25;;;;;;;;5015441;28;13529;-70
2021/01/31 12:01:38;;;;;;;;;2.00;2.00;;;;;;;;5013636;28;13592;-70
2021/01/31 16:12:01;;;;;;;;;2.80;2.80;;;;;;;;5097594;27;835487;-71
2021/01/31 16:14:27;;;;;;;;;1.60;1.60;;;;;;;;5106314;27;13545;-66
2021/01/31 16:16:53;;;;;;;;;3.00;3.00;;;;;;;;5108522;28;14033;-66
2021/01/31 16:19:18;;;;;;;;;3.00;3.00;;;;;;;;5110573;27;13440;-67
2021/01/31 16:21:44;;;;;;;;;3.00;1.20;;;;;;;;5111123;27;13418;-68
2021/01/31 16:24:10;;;;;;;;;4.00;2.00;;;;;;;;5103522;28;13377;-67
2021/01/31 16:26:37;;;;;;;;;4.75;4.75;;;;;;;;5109940;27;13553;-67
2021/01/31 16:29:05;;;;;;;;;4.00;4.00;;;;;;;;5108675;28;13354;-68
2021/01/31 16:31:31;;;;;;;;;6.00;5.00;;;;;;;;5111074;27;13383;-69
2021/01/31 16:33:57;;;;;;;;;4.00;4.00;;;;;;;;5109525;27;13498;-69
2021/01/31 16:36:23;;;;;;;;;4.00;4.00;;;;;;;;5107874;27;13493;-69
2021/01/31 16:38:50;;;;;;;;;2.00;2.00;;;;;;;;5105807;28;13925;-69
2021/01/31 16:41:16;;;;;;;;;1.00;1.00;;;;;;;;5106653;27;13439;-69
2021/01/31 16:43:42;;;;;;;;;1.00;1.00;;;;;;;;5106747;28;13487;-68
2021/01/31 16:46:09;;;;;;;;;1.00;1.00;;;;;;;;5106076;27;13482;-69
2021/01/31 16:48:35;;;;;;;;;1.00;1.00;;;;;;;;5107206;27;14280;-68
2021/01/31 16:51:01;;;;;;;;;1.00;1.00;;;;;;;;5113757;27;14188;-69
2021/01/31 16:53:27;;;;;;;;;0.00;0.00;;;;;;;;5113359;27;13601;-69
2021/01/31 16:55:54;;;;;;;;;1.00;1.00;;;;;;;;5111433;28;13530;-68
2021/01/31 16:58:20;;;;;;;;;1.00;1.00;;;;;;;;5112967;27;13362;-69
2021/01/31 17:00:46;;;;;;;;;3.80;3.80;;;;;;;;5114713;27;14202;-70
2021/01/31 17:03:13;;;;;;;;;3.00;2.00;;;;;;;;5114623;27;13432;-69
2021/01/31 17:05:40;;;;;;;;;2.00;2.00;;;;;;;;5111866;27;13288;-77
2021/01/31 17:08:06;;;;;;;;;3.00;3.00;;;;;;;;5106047;28;13384;-69
2021/01/31 17:10:32;;;;;;;;;2.00;2.00;;;;;;;;5102779;28;13684;-70
2021/01/31 17:12:59;;;;;;;;;2.00;2.00;;;;;;;;5109274;27;13368;-73
2021/01/31 17:15:25;;;;;;;;;2.75;2.75;;;;;;;;5110616;27;13274;-69
2021/01/31 17:17:51;;;;;;;;;1.40;1.40;;;;;;;;5111598;27;13594;-71
2021/01/31 17:20:19;;;;;;;;;5.00;5.00;;;;;;;;5112634;27;14078;-70
2021/01/31 17:22:45;;;;;;;;;20.50;20.50;;;;;;;;5099836;28;13617;-72
2021/01/31 17:25:11;;;;;;;;;9.00;9.00;;;;;;;;5099068;28;13559;-72
2021/01/31 17:27:37;;;;;;;;;7.25;6.25;;;;;;;;5096051;28;13606;-72
2021/01/31 17:30:04;;;;;;;;;11.00;10.00;;;;;;;;5099487;28;13934;-69
2021/01/31 17:32:30;;;;;;;;;10.00;10.00;;;;;;;;5096372;28;13407;-69
2021/01/31 17:34:56;;;;;;;;;8.20;8.20;;;;;;;;5097738;28;13477;-69
2021/01/31 17:37:22;;;;;;;;;11.25;10.25;;;;;;;;5096471;28;13436;-68
2021/01/31 17:39:49;;;;;;;;;6.00;6.00;;;;;;;;5096441;28;13633;-69
2021/01/31 17:42:15;;;;;;;;;8.40;8.40;;;;;;;;5095789;28;13506;-69
2021/01/31 17:44:42;;;;;;;;;7.80;7.00;;;;;;;;5099556;28;13493;-69
2021/01/31 17:47:08;;;;;;;;;7.00;7.00;;;;;;;;5098931;28;13390;-69
2021/01/31 17:49:34;;;;;;;;;6.50;6.50;;;;;;;;5097367;28;13511;-66
2021/01/31 17:52:00;;;;;;;;;10.50;10.00;;;;;;;;5100008;28;13409;-67
2021/01/31 17:54:27;;;;;;;;;10.80;10.80;;;;;;;;5074580;28;14312;-71
2021/01/31 17:56:53;;;;;;;;;13.75;12.75;;;;;;;;5037373;28;13652;-72
2021/01/31 17:59:18;;;;;;;;;11.00;11.00;;;;;;;;5037925;28;13572;-70
2021/01/31 18:01:44;;;;;;;;;12.33;12.33;;;;;;;;5037188;28;13591;-68
2021/01/31 18:04:11;;;;;;;;;12.60;11.60;;;;;;;;5038540;28;14276;-69
2021/01/31 18:06:37;;;;;;;;;14.00;10.00;;;;;;;;5034804;28;14385;-71
2021/01/31 18:09:03;;;;;;;;;12.80;10.80;;;;;;;;5039458;28;13705;-69
2021/01/31 18:11:30;;;;;;;;;14.00;14.00;;;;;;;;5035977;28;13711;-69
2021/01/31 18:13:57;;;;;;;;;14.00;13.75;;;;;;;;5038308;28;13663;-70
2021/01/31 18:16:23;;;;;;;;;14.50;12.50;;;;;;;;5037168;28;13527;-68
2021/01/31 18:18:49;;;;;;;;;12.40;12.20;;;;;;;;5037566;28;13877;-68
2021/01/31 18:21:15;;;;;;;;;18.00;13.60;;;;;;;;5038124;28;14084;-69
2021/01/31 18:23:45;;;;;;;;;12.50;12.50;;;;;;;;5036175;28;14329;-67
2021/01/31 18:26:11;;;;;;;;;19.20;17.80;;;;;;;;5034707;28;13580;-66
2021/01/31 18:28:38;;;;;;;;;17.00;14.00;;;;;;;;5035936;28;13591;-68
2021/01/31 18:31:04;;;;;;;;;19.00;18.20;;;;;;;;5035008;28;13596;-68
2021/01/31 18:33:30;;;;;;;;;15.25;15.25;;;;;;;;5028370;28;13771;-72
2021/01/31 18:35:56;;;;;;;;;15.50;14.75;;;;;;;;5030280;28;13962;-73
2021/01/31 18:38:23;;;;;;;;;17.00;15.60;;;;;;;;5038140;28;13620;-75
2021/01/31 18:40:49;;;;;;;;;13.80;12.00;;;;;;;;5040654;28;13627;-75
2021/01/31 18:43:15;;;;;;;;;17.75;14.00;;;;;;;;5034508;28;13584;-73
2021/01/31 18:45:42;;;;;;;;;14.00;14.00;;;;;;;;5034274;28;13643;-73
2021/01/31 18:48:08;;;;;;;;;18.25;15.75;;;;;;;;5038706;28;13573;-73
2021/01/31 18:50:35;;;;;;;;;14.00;14.00;;;;;;;;5030804;28;13577;-71
2021/01/31 18:53:01;;;;;;;;;15.80;14.20;;;;;;;;5038803;28;13694;-73
2021/01/31 18:55:27;;;;;;;;;14.50;12.50;;;;;;;;5025166;28;13643;-72
2021/01/31 18:57:53;;;;;;;;;18.75;15.75;;;;;;;;5030571;28;13751;-70